sensor_id;sensor_type;location;lat;lon;timestamp;temperature;humidity
68274;SHT30;55104;47.356;19.448;2023-05-07T00:00:20;15.41;91.27
68274;SHT30;55104;47.356;19.448;2023-05-07T00:03:22;15.44;90.93
68274;SHT30;55104;47.356;19.448;2023-05-07T00:06:25;15.39;91.25
68274;SHT30;55104;47.356;19.448;2023-05-07T00:09:27;15.42;91.11
68274;SHT30;55104;47.356;19.448;2023-05-07T00:12:30;15.35;91.64
68274;SHT30;55104;47.356;19.448;2023-05-07T00:15:33;15.20;92.03
68274;SHT30;55104;47.356;19.448;2023-05-07T00:18:35;15.17;92.87
68274;SHT30;55104;47.356;19.448;2023-05-07T00:21:37;15.17;92.62
68274;SHT30;55104;47.356;19.448;2023-05-07T00:24:39;15.21;92.43
68274;SHT30;55104;47.356;19.448;2023-05-07T00:27:41;15.21;92.46
68274;SHT30;55104;47.356;19.448;2023-05-07T00:30:43;15.23;92.59
68274;SHT30;55104;47.356;19.448;2023-05-07T00:33:46;15.20;92.38
68274;SHT30;55104;47.356;19.448;2023-05-07T00:36:48;15.24;92.47
68274;SHT30;55104;47.356;19.448;2023-05-07T00:39:50;15.25;92.49
68274;SHT30;55104;47.356;19.448;2023-05-07T00:42:53;15.24;92.85
68274;SHT30;55104;47.356;19.448;2023-05-07T00:46:00;15.20;92.74
68274;SHT30;55104;47.356;19.448;2023-05-07T00:49:03;15.17;93.05
68274;SHT30;55104;47.356;19.448;2023-05-07T00:52:07;15.12;93.58
68274;SHT30;55104;47.356;19.448;2023-05-07T00:55:09;15.10;93.75
68274;SHT30;55104;47.356;19.448;2023-05-07T00:58:12;15.04;93.46
68274;SHT30;55104;47.356;19.448;2023-05-07T01:01:14;15.01;93.55
68274;SHT30;55104;47.356;19.448;2023-05-07T01:04:18;14.96;93.56
68274;SHT30;55104;47.356;19.448;2023-05-07T01:07:21;14.89;93.73
68274;SHT30;55104;47.356;19.448;2023-05-07T01:10:24;14.79;93.50
68274;SHT30;55104;47.356;19.448;2023-05-07T01:13:27;14.68;93.62
68274;SHT30;55104;47.356;19.448;2023-05-07T01:16:29;14.61;93.54
68274;SHT30;55104;47.356;19.448;2023-05-07T01:19:31;14.55;93.64
68274;SHT30;55104;47.356;19.448;2023-05-07T01:22:36;14.46;93.43
68274;SHT30;55104;47.356;19.448;2023-05-07T01:25:39;14.38;93.64
68274;SHT30;55104;47.356;19.448;2023-05-07T01:28:43;14.28;93.44
68274;SHT30;55104;47.356;19.448;2023-05-07T01:31:46;14.24;93.58
68274;SHT30;55104;47.356;19.448;2023-05-07T01:34:50;14.17;94.79
68274;SHT30;55104;47.356;19.448;2023-05-07T01:37:53;14.10;95.61
68274;SHT30;55104;47.356;19.448;2023-05-07T01:40:56;14.08;95.40
68274;SHT30;55104;47.356;19.448;2023-05-07T01:44:00;14.00;95.00
68274;SHT30;55104;47.356;19.448;2023-05-07T01:47:02;13.94;95.46
68274;SHT30;55104;47.356;19.448;2023-05-07T01:50:08;13.89;96.03
68274;SHT30;55104;47.356;19.448;2023-05-07T01:53:12;13.87;95.85
68274;SHT30;55104;47.356;19.448;2023-05-07T01:56:14;13.77;96.27
68274;SHT30;55104;47.356;19.448;2023-05-07T01:59:17;13.76;96.33
68274;SHT30;55104;47.356;19.448;2023-05-07T02:02:19;13.77;96.26
68274;SHT30;55104;47.356;19.448;2023-05-07T02:05:21;13.76;95.99
68274;SHT30;55104;47.356;19.448;2023-05-07T02:08:31;13.73;95.79
68274;SHT30;55104;47.356;19.448;2023-05-07T02:11:33;13.71;95.87
68274;SHT30;55104;47.356;19.448;2023-05-07T02:14:35;13.73;95.89
68274;SHT30;55104;47.356;19.448;2023-05-07T02:17:58;13.70;95.65
68274;SHT30;55104;47.356;19.448;2023-05-07T02:21:02;13.70;95.48
68274;SHT30;55104;47.356;19.448;2023-05-07T02:24:04;13.66;95.54
68274;SHT30;55104;47.356;19.448;2023-05-07T02:27:06;13.62;95.28
68274;SHT30;55104;47.356;19.448;2023-05-07T02:30:08;13.58;95.27
68274;SHT30;55104;47.356;19.448;2023-05-07T02:33:11;13.60;95.43
68274;SHT30;55104;47.356;19.448;2023-05-07T02:36:15;13.58;95.25
68274;SHT30;55104;47.356;19.448;2023-05-07T02:39:32;13.56;94.95
68274;SHT30;55104;47.356;19.448;2023-05-07T02:42:34;13.46;94.75
68274;SHT30;55104;47.356;19.448;2023-05-07T02:45:37;13.43;94.87
68274;SHT30;55104;47.356;19.448;2023-05-07T02:48:41;13.49;95.44
68274;SHT30;55104;47.356;19.448;2023-05-07T02:51:43;13.41;95.07
68274;SHT30;55104;47.356;19.448;2023-05-07T02:54:51;13.35;94.82
68274;SHT30;55104;47.356;19.448;2023-05-07T02:57:53;13.26;94.79
68274;SHT30;55104;47.356;19.448;2023-05-07T03:00:55;13.25;94.97
68274;SHT30;55104;47.356;19.448;2023-05-07T03:04:06;13.18;95.10
68274;SHT30;55104;47.356;19.448;2023-05-07T03:07:08;13.15;95.31
68274;SHT30;55104;47.356;19.448;2023-05-07T03:10:10;13.11;94.99
68274;SHT30;55104;47.356;19.448;2023-05-07T03:13:13;13.15;94.81
68274;SHT30;55104;47.356;19.448;2023-05-07T03:16:15;13.18;94.70
68274;SHT30;55104;47.356;19.448;2023-05-07T03:19:17;13.24;94.88
68274;SHT30;55104;47.356;19.448;2023-05-07T03:22:19;13.26;94.89
68274;SHT30;55104;47.356;19.448;2023-05-07T03:25:22;13.32;94.79
68274;SHT30;55104;47.356;19.448;2023-05-07T03:28:24;13.39;94.76
68274;SHT30;55104;47.356;19.448;2023-05-07T03:31:32;13.46;94.75
68274;SHT30;55104;47.356;19.448;2023-05-07T03:34:35;13.51;94.65
68274;SHT30;55104;47.356;19.448;2023-05-07T03:37:38;13.55;94.57
68274;SHT30;55104;47.356;19.448;2023-05-07T03:40:40;13.58;94.42
68274;SHT30;55104;47.356;19.448;2023-05-07T03:43:43;13.62;94.50
68274;SHT30;55104;47.356;19.448;2023-05-07T03:46:46;13.66;94.76
68274;SHT30;55104;47.356;19.448;2023-05-07T03:49:49;13.69;94.65
68274;SHT30;55104;47.356;19.448;2023-05-07T03:52:52;13.77;94.57
68274;SHT30;55104;47.356;19.448;2023-05-07T03:55:56;13.86;94.41
68274;SHT30;55104;47.356;19.448;2023-05-07T03:58:58;13.91;94.23
68274;SHT30;55104;47.356;19.448;2023-05-07T04:02:00;13.94;94.18
68274;SHT30;55104;47.356;19.448;2023-05-07T04:05:06;14.04;94.33
68274;SHT30;55104;47.356;19.448;2023-05-07T04:08:09;14.08;94.47
68274;SHT30;55104;47.356;19.448;2023-05-07T04:11:17;14.20;94.37
68274;SHT30;55104;47.356;19.448;2023-05-07T04:14:19;14.26;94.29
68274;SHT30;55104;47.356;19.448;2023-05-07T04:17:22;14.34;94.11
68274;SHT30;55104;47.356;19.448;2023-05-07T04:20:25;14.38;93.96
68274;SHT30;55104;47.356;19.448;2023-05-07T04:23:33;14.46;93.67
68274;SHT30;55104;47.356;19.448;2023-05-07T04:26:38;14.55;93.49
68274;SHT30;55104;47.356;19.448;2023-05-07T04:29:40;14.62;93.57
68274;SHT30;55104;47.356;19.448;2023-05-07T04:32:47;14.73;93.28
68274;SHT30;55104;47.356;19.448;2023-05-07T04:35:50;14.80;93.35
68274;SHT30;55104;47.356;19.448;2023-05-07T04:38:52;14.83;92.71
68274;SHT30;55104;47.356;19.448;2023-05-07T04:41:55;14.90;92.56
68274;SHT30;55104;47.356;19.448;2023-05-07T04:44:57;14.93;92.39
68274;SHT30;55104;47.356;19.448;2023-05-07T04:48:00;14.96;92.30
68274;SHT30;55104;47.356;19.448;2023-05-07T04:51:04;14.94;92.24
68274;SHT30;55104;47.356;19.448;2023-05-07T04:54:06;14.97;92.37
68274;SHT30;55104;47.356;19.448;2023-05-07T04:57:08;15.04;92.39
68274;SHT30;55104;47.356;19.448;2023-05-07T05:00:11;15.12;92.29
68274;SHT30;55104;47.356;19.448;2023-05-07T05:03:18;15.27;91.89
68274;SHT30;55104;47.356;19.448;2023-05-07T05:06:20;15.38;91.80
68274;SHT30;55104;47.356;19.448;2023-05-07T05:09:24;15.48;91.33
68274;SHT30;55104;47.356;19.448;2023-05-07T05:12:26;15.62;90.55
68274;SHT30;55104;47.356;19.448;2023-05-07T05:15:28;15.74;90.52
68274;SHT30;55104;47.356;19.448;2023-05-07T05:18:34;15.91;90.82
68274;SHT30;55104;47.356;19.448;2023-05-07T05:21:36;16.17;89.83
68274;SHT30;55104;47.356;19.448;2023-05-07T05:24:42;16.35;89.65
68274;SHT30;55104;47.356;19.448;2023-05-07T05:27:44;16.54;88.82
68274;SHT30;55104;47.356;19.448;2023-05-07T05:30:47;16.71;87.83
68274;SHT30;55104;47.356;19.448;2023-05-07T05:33:50;16.99;87.30
68274;SHT30;55104;47.356;19.448;2023-05-07T05:36:52;17.23;86.75
68274;SHT30;55104;47.356;19.448;2023-05-07T05:39:54;17.37;84.67
68274;SHT30;55104;47.356;19.448;2023-05-07T05:42:58;17.58;84.11
68274;SHT30;55104;47.356;19.448;2023-05-07T05:46:00;17.66;83.03
68274;SHT30;55104;47.356;19.448;2023-05-07T05:49:03;17.66;81.88
68274;SHT30;55104;47.356;19.448;2023-05-07T05:52:06;17.72;80.58
68274;SHT30;55104;47.356;19.448;2023-05-07T05:55:10;17.73;80.03
68274;SHT30;55104;47.356;19.448;2023-05-07T05:58:13;17.82;79.59
68274;SHT30;55104;47.356;19.448;2023-05-07T06:01:23;18.18;78.62
68274;SHT30;55104;47.356;19.448;2023-05-07T06:04:27;18.65;76.17
68274;SHT30;55104;47.356;19.448;2023-05-07T06:07:30;18.98;74.04
68274;SHT30;55104;47.356;19.448;2023-05-07T06:10:32;19.62;73.01
68274;SHT30;55104;47.356;19.448;2023-05-07T06:13:35;19.78;71.72
68274;SHT30;55104;47.356;19.448;2023-05-07T06:16:37;19.68;71.41
68274;SHT30;55104;47.356;19.448;2023-05-07T06:19:41;19.50;72.48
68274;SHT30;55104;47.356;19.448;2023-05-07T06:22:45;19.43;72.60
68274;SHT30;55104;47.356;19.448;2023-05-07T06:25:49;19.37;73.29
68274;SHT30;55104;47.356;19.448;2023-05-07T06:28:58;19.32;72.52
68274;SHT30;55104;47.356;19.448;2023-05-07T06:32:10;19.32;71.59
68274;SHT30;55104;47.356;19.448;2023-05-07T06:35:17;19.35;70.36
68274;SHT30;55104;47.356;19.448;2023-05-07T06:38:19;19.44;70.26
68274;SHT30;55104;47.356;19.448;2023-05-07T06:41:23;19.55;73.41
68274;SHT30;55104;47.356;19.448;2023-05-07T06:44:25;19.71;70.77
68274;SHT30;55104;47.356;19.448;2023-05-07T06:47:42;19.81;72.03
68274;SHT30;55104;47.356;19.448;2023-05-07T06:50:45;20.06;71.26
68274;SHT30;55104;47.356;19.448;2023-05-07T06:53:47;20.23;68.50
68274;SHT30;55104;47.356;19.448;2023-05-07T06:56:49;20.30;69.68
68274;SHT30;55104;47.356;19.448;2023-05-07T06:59:52;20.47;67.46
68274;SHT30;55104;47.356;19.448;2023-05-07T07:02:55;20.33;67.34
68274;SHT30;55104;47.356;19.448;2023-05-07T07:06:01;20.36;66.76
68274;SHT30;55104;47.356;19.448;2023-05-07T07:09:04;20.45;66.24
68274;SHT30;55104;47.356;19.448;2023-05-07T07:12:06;20.50;66.82
68274;SHT30;55104;47.356;19.448;2023-05-07T07:15:11;20.37;66.96
68274;SHT30;55104;47.356;19.448;2023-05-07T07:18:13;20.44;66.09
68274;SHT30;55104;47.356;19.448;2023-05-07T07:21:16;20.37;66.97
68274;SHT30;55104;47.356;19.448;2023-05-07T07:24:18;20.57;65.96
68274;SHT30;55104;47.356;19.448;2023-05-07T07:27:27;20.69;66.31
68274;SHT30;55104;47.356;19.448;2023-05-07T07:30:29;20.95;65.20
68274;SHT30;55104;47.356;19.448;2023-05-07T07:33:31;21.23;67.41
68274;SHT30;55104;47.356;19.448;2023-05-07T07:36:34;21.50;66.84
68274;SHT30;55104;47.356;19.448;2023-05-07T07:39:49;21.40;63.82
68274;SHT30;55104;47.356;19.448;2023-05-07T07:42:52;21.47;62.44
68274;SHT30;55104;47.356;19.448;2023-05-07T07:45:54;21.78;63.84
68274;SHT30;55104;47.356;19.448;2023-05-07T07:48:56;21.88;62.89
68274;SHT30;55104;47.356;19.448;2023-05-07T07:52:00;21.95;63.36
68274;SHT30;55104;47.356;19.448;2023-05-07T07:55:05;22.12;62.59
68274;SHT30;55104;47.356;19.448;2023-05-07T07:58:07;22.19;62.01
68274;SHT30;55104;47.356;19.448;2023-05-07T08:01:10;22.35;61.43
68274;SHT30;55104;47.356;19.448;2023-05-07T08:04:15;22.30;62.95
68274;SHT30;55104;47.356;19.448;2023-05-07T08:07:19;22.54;60.13
68274;SHT30;55104;47.356;19.448;2023-05-07T08:10:23;22.91;61.03
68274;SHT30;55104;47.356;19.448;2023-05-07T08:13:32;22.92;59.90
68274;SHT30;55104;47.356;19.448;2023-05-07T08:16:34;23.11;58.83
68274;SHT30;55104;47.356;19.448;2023-05-07T08:19:37;23.08;58.42
68274;SHT30;55104;47.356;19.448;2023-05-07T08:22:41;22.90;59.35
68274;SHT30;55104;47.356;19.448;2023-05-07T08:25:43;22.96;60.78
68274;SHT30;55104;47.356;19.448;2023-05-07T08:28:48;22.75;62.26
68274;SHT30;55104;47.356;19.448;2023-05-07T08:31:51;22.94;61.35
68274;SHT30;55104;47.356;19.448;2023-05-07T08:34:53;22.87;62.26
68274;SHT30;55104;47.356;19.448;2023-05-07T08:37:55;22.78;60.87
68274;SHT30;55104;47.356;19.448;2023-05-07T08:40:57;23.01;62.15
68274;SHT30;55104;47.356;19.448;2023-05-07T08:44:03;22.90;60.89
68274;SHT30;55104;47.356;19.448;2023-05-07T08:47:06;22.60;60.07
68274;SHT30;55104;47.356;19.448;2023-05-07T08:50:10;22.24;62.44
68274;SHT30;55104;47.356;19.448;2023-05-07T08:53:15;22.51;61.56
68274;SHT30;55104;47.356;19.448;2023-05-07T08:56:18;22.13;63.03
68274;SHT30;55104;47.356;19.448;2023-05-07T08:59:25;21.94;63.21
68274;SHT30;55104;47.356;19.448;2023-05-07T09:02:27;21.92;63.04
68274;SHT30;55104;47.356;19.448;2023-05-07T09:05:30;21.81;64.03
68274;SHT30;55104;47.356;19.448;2023-05-07T09:08:34;21.62;63.45
68274;SHT30;55104;47.356;19.448;2023-05-07T09:11:38;21.69;64.08
68274;SHT30;55104;47.356;19.448;2023-05-07T09:14:41;21.48;64.45
68274;SHT30;55104;47.356;19.448;2023-05-07T09:17:43;21.43;63.66
68274;SHT30;55104;47.356;19.448;2023-05-07T09:20:46;21.37;65.01
68274;SHT30;55104;47.356;19.448;2023-05-07T09:23:51;21.19;64.33
68274;SHT30;55104;47.356;19.448;2023-05-07T09:26:57;21.12;63.54
68274;SHT30;55104;47.356;19.448;2023-05-07T09:30:03;21.19;62.37
68274;SHT30;55104;47.356;19.448;2023-05-07T09:33:06;21.53;64.17
68274;SHT30;55104;47.356;19.448;2023-05-07T09:36:12;21.64;64.66
68274;SHT30;55104;47.356;19.448;2023-05-07T09:39:16;21.75;63.66
68274;SHT30;55104;47.356;19.448;2023-05-07T09:42:25;21.88;62.43
68274;SHT30;55104;47.356;19.448;2023-05-07T09:45:32;21.94;62.07
68274;SHT30;55104;47.356;19.448;2023-05-07T09:48:37;22.03;62.79
68274;SHT30;55104;47.356;19.448;2023-05-07T09:52:00;22.09;60.82
68274;SHT30;55104;47.356;19.448;2023-05-07T09:55:07;22.03;61.32
68274;SHT30;55104;47.356;19.448;2023-05-07T09:58:12;22.06;61.27
68274;SHT30;55104;47.356;19.448;2023-05-07T10:01:16;22.06;61.58
68274;SHT30;55104;47.356;19.448;2023-05-07T10:04:19;22.35;59.70
68274;SHT30;55104;47.356;19.448;2023-05-07T10:07:22;22.51;60.56
68274;SHT30;55104;47.356;19.448;2023-05-07T10:10:29;22.54;60.13
68274;SHT30;55104;47.356;19.448;2023-05-07T10:13:33;22.72;60.02
68274;SHT30;55104;47.356;19.448;2023-05-07T10:16:37;23.23;57.57
68274;SHT30;55104;47.356;19.448;2023-05-07T10:19:45;23.94;58.04
68274;SHT30;55104;47.356;19.448;2023-05-07T10:22:49;23.91;57.78
68274;SHT30;55104;47.356;19.448;2023-05-07T10:26:00;24.05;56.13
68274;SHT30;55104;47.356;19.448;2023-05-07T10:32:47;23.57;54.83
68274;SHT30;55104;47.356;19.448;2023-05-07T10:35:59;23.16;58.00
68274;SHT30;55104;47.356;19.448;2023-05-07T10:39:05;23.05;57.88
68274;SHT30;55104;47.356;19.448;2023-05-07T10:42:12;23.05;60.28
68274;SHT30;55104;47.356;19.448;2023-05-07T10:45:19;23.20;58.96
68274;SHT30;55104;47.356;19.448;2023-05-07T10:48:24;23.04;58.11
68274;SHT30;55104;47.356;19.448;2023-05-07T10:51:42;23.05;58.82
68274;SHT30;55104;47.356;19.448;2023-05-07T10:58:34;22.68;60.44
68274;SHT30;55104;47.356;19.448;2023-05-07T11:02:02;22.90;59.55
68274;SHT30;55104;47.356;19.448;2023-05-07T11:05:22;22.87;59.35
68274;SHT30;55104;47.356;19.448;2023-05-07T11:11:55;22.39;60.03
68274;SHT30;55104;47.356;19.448;2023-05-07T11:15:12;22.35;60.25
68274;SHT30;55104;47.356;19.448;2023-05-07T11:18:16;22.65;60.29
68274;SHT30;55104;47.356;19.448;2023-05-07T11:21:38;22.46;61.19
68274;SHT30;55104;47.356;19.448;2023-05-07T11:25:07;22.49;60.79
68274;SHT30;55104;47.356;19.448;2023-05-07T11:28:10;22.58;60.06
68274;SHT30;55104;47.356;19.448;2023-05-07T11:31:24;22.75;59.57
68274;SHT30;55104;47.356;19.448;2023-05-07T11:34:28;22.88;58.92
68274;SHT30;55104;47.356;19.448;2023-05-07T11:37:32;22.68;59.04
68274;SHT30;55104;47.356;19.448;2023-05-07T11:40:54;23.19;59.57
68274;SHT30;55104;47.356;19.448;2023-05-07T11:43:58;23.81;57.79
68274;SHT30;55104;47.356;19.448;2023-05-07T11:47:00;24.09;56.71
68274;SHT30;55104;47.356;19.448;2023-05-07T11:50:07;24.14;56.59
68274;SHT30;55104;47.356;19.448;2023-05-07T11:53:10;24.49;54.74
68274;SHT30;55104;47.356;19.448;2023-05-07T11:56:16;25.07;55.60
68274;SHT30;55104;47.356;19.448;2023-05-07T11:59:19;25.05;53.94
68274;SHT30;55104;47.356;19.448;2023-05-07T12:02:22;25.31;55.15
68274;SHT30;55104;47.356;19.448;2023-05-07T12:05:24;25.42;54.40
68274;SHT30;55104;47.356;19.448;2023-05-07T12:08:26;25.90;54.32
68274;SHT30;55104;47.356;19.448;2023-05-07T12:11:29;25.63;53.19
68274;SHT30;55104;47.356;19.448;2023-05-07T12:14:31;25.98;51.69
68274;SHT30;55104;47.356;19.448;2023-05-07T12:17:34;24.66;54.34
68274;SHT30;55104;47.356;19.448;2023-05-07T12:20:37;24.43;54.98
68274;SHT30;55104;47.356;19.448;2023-05-07T12:23:39;24.63;53.99
68274;SHT30;55104;47.356;19.448;2023-05-07T12:26:43;24.77;53.30
68274;SHT30;55104;47.356;19.448;2023-05-07T12:29:46;24.67;53.04
68274;SHT30;55104;47.356;19.448;2023-05-07T12:32:52;24.80;54.04
68274;SHT30;55104;47.356;19.448;2023-05-07T12:35:55;24.49;54.44
68274;SHT30;55104;47.356;19.448;2023-05-07T12:38:59;24.61;53.39
68274;SHT30;55104;47.356;19.448;2023-05-07T12:42:01;24.37;53.55
68274;SHT30;55104;47.356;19.448;2023-05-07T12:45:15;23.98;55.08
68274;SHT30;55104;47.356;19.448;2023-05-07T12:48:19;23.82;55.63
68274;SHT30;55104;47.356;19.448;2023-05-07T12:51:22;23.71;54.94
68274;SHT30;55104;47.356;19.448;2023-05-07T12:57:41;23.19;56.18
68274;SHT30;55104;47.356;19.448;2023-05-07T13:00:44;23.05;56.06
68274;SHT30;55104;47.356;19.448;2023-05-07T13:03:48;22.44;57.13
68274;SHT30;55104;47.356;19.448;2023-05-07T13:06:52;22.28;57.73
68274;SHT30;55104;47.356;19.448;2023-05-07T13:09:55;22.16;59.68
68274;SHT30;55104;47.356;19.448;2023-05-07T13:12:57;22.08;59.73
68274;SHT30;55104;47.356;19.448;2023-05-07T13:16:00;21.86;60.08
68274;SHT30;55104;47.356;19.448;2023-05-07T13:19:02;21.59;60.08
68274;SHT30;55104;47.356;19.448;2023-05-07T13:22:05;21.33;62.30
68274;SHT30;55104;47.356;19.448;2023-05-07T13:25:07;21.06;63.70
68274;SHT30;55104;47.356;19.448;2023-05-07T13:28:10;20.54;64.61
68274;SHT30;55104;47.356;19.448;2023-05-07T13:31:12;20.67;65.72
68274;SHT30;55104;47.356;19.448;2023-05-07T13:34:14;20.57;67.70
68274;SHT30;55104;47.356;19.448;2023-05-07T13:37:16;20.58;70.90
68274;SHT30;55104;47.356;19.448;2023-05-07T13:40:18;20.44;75.02
68274;SHT30;55104;47.356;19.448;2023-05-07T13:43:21;20.31;76.06
68274;SHT30;55104;47.356;19.448;2023-05-07T13:46:23;20.23;77.63
68274;SHT30;55104;47.356;19.448;2023-05-07T13:49:25;20.31;78.25
68274;SHT30;55104;47.356;19.448;2023-05-07T13:52:27;20.37;76.65
68274;SHT30;55104;47.356;19.448;2023-05-07T13:55:29;20.33;74.82
68274;SHT30;55104;47.356;19.448;2023-05-07T13:58:31;20.14;73.72
68274;SHT30;55104;47.356;19.448;2023-05-07T14:01:34;20.40;75.34
68274;SHT30;55104;47.356;19.448;2023-05-07T14:04:37;20.84;75.92
68274;SHT30;55104;47.356;19.448;2023-05-07T14:07:39;21.20;73.08
68274;SHT30;55104;47.356;19.448;2023-05-07T14:10:41;21.75;71.85
68274;SHT30;55104;47.356;19.448;2023-05-07T14:13:44;22.19;71.51
68274;SHT30;55104;47.356;19.448;2023-05-07T14:16:46;22.44;69.91
68274;SHT30;55104;47.356;19.448;2023-05-07T14:19:51;22.46;69.72
68274;SHT30;55104;47.356;19.448;2023-05-07T14:22:55;22.79;69.18
68274;SHT30;55104;47.356;19.448;2023-05-07T14:25:59;22.88;69.13
68274;SHT30;55104;47.356;19.448;2023-05-07T14:29:01;22.72;67.61
68274;SHT30;55104;47.356;19.448;2023-05-07T14:32:03;22.39;65.68
68274;SHT30;55104;47.356;19.448;2023-05-07T14:35:05;22.08;66.40
68274;SHT30;55104;47.356;19.448;2023-05-07T14:38:07;21.86;67.80
68274;SHT30;55104;47.356;19.448;2023-05-07T14:41:09;21.69;70.06
68274;SHT30;55104;47.356;19.448;2023-05-07T14:44:12;21.58;71.27
68274;SHT30;55104;47.356;19.448;2023-05-07T14:47:14;21.54;69.59
68274;SHT30;55104;47.356;19.448;2023-05-07T14:50:20;21.36;68.49
68274;SHT30;55104;47.356;19.448;2023-05-07T14:53:23;21.30;69.76
68274;SHT30;55104;47.356;19.448;2023-05-07T14:56:25;21.20;70.21
68274;SHT30;55104;47.356;19.448;2023-05-07T14:59:28;21.14;70.68
68274;SHT30;55104;47.356;19.448;2023-05-07T15:02:30;21.13;70.40
68274;SHT30;55104;47.356;19.448;2023-05-07T15:05:33;21.12;69.88
68274;SHT30;55104;47.356;19.448;2023-05-07T15:08:35;21.13;71.69
68274;SHT30;55104;47.356;19.448;2023-05-07T15:11:37;21.43;72.29
68274;SHT30;55104;47.356;19.448;2023-05-07T15:14:41;21.82;67.22
68274;SHT30;55104;47.356;19.448;2023-05-07T15:17:43;21.74;65.26
68274;SHT30;55104;47.356;19.448;2023-05-07T15:20:45;21.98;63.74
68274;SHT30;55104;47.356;19.448;2023-05-07T15:23:47;22.05;64.01
68274;SHT30;55104;47.356;19.448;2023-05-07T15:26:51;21.95;63.37
68274;SHT30;55104;47.356;19.448;2023-05-07T15:29:53;21.86;63.47
68274;SHT30;55104;47.356;19.448;2023-05-07T15:32:55;22.20;63.64
68274;SHT30;55104;47.356;19.448;2023-05-07T15:35:57;22.37;63.77
68274;SHT30;55104;47.356;19.448;2023-05-07T15:39:00;22.35;63.43
68274;SHT30;55104;47.356;19.448;2023-05-07T15:42:04;22.50;62.99
68274;SHT30;55104;47.356;19.448;2023-05-07T15:45:07;22.63;61.43
68274;SHT30;55104;47.356;19.448;2023-05-07T15:48:10;22.84;61.55
68274;SHT30;55104;47.356;19.448;2023-05-07T15:51:12;22.90;61.01
68274;SHT30;55104;47.356;19.448;2023-05-07T15:54:15;23.01;61.26
68274;SHT30;55104;47.356;19.448;2023-05-07T15:57:19;23.18;60.87
68274;SHT30;55104;47.356;19.448;2023-05-07T16:00:25;23.02;60.03
68274;SHT30;55104;47.356;19.448;2023-05-07T16:03:28;22.95;62.45
68274;SHT30;55104;47.356;19.448;2023-05-07T16:06:30;22.77;61.37
68274;SHT30;55104;47.356;19.448;2023-05-07T16:09:33;22.68;62.21
68274;SHT30;55104;47.356;19.448;2023-05-07T16:12:35;22.50;62.15
68274;SHT30;55104;47.356;19.448;2023-05-07T16:15:38;22.60;62.03
68274;SHT30;55104;47.356;19.448;2023-05-07T16:18:40;22.53;62.93
68274;SHT30;55104;47.356;19.448;2023-05-07T16:21:42;22.40;63.09
68274;SHT30;55104;47.356;19.448;2023-05-07T16:24:44;22.40;62.84
68274;SHT30;55104;47.356;19.448;2023-05-07T16:27:47;22.40;63.68
68274;SHT30;55104;47.356;19.448;2023-05-07T16:30:49;22.28;64.23
68274;SHT30;55104;47.356;19.448;2023-05-07T16:33:51;22.26;61.65
68274;SHT30;55104;47.356;19.448;2023-05-07T16:36:53;22.22;56.98
68274;SHT30;55104;47.356;19.448;2023-05-07T16:39:55;22.13;56.48
68274;SHT30;55104;47.356;19.448;2023-05-07T16:42:57;21.99;56.81
68274;SHT30;55104;47.356;19.448;2023-05-07T16:45:59;21.91;57.63
68274;SHT30;55104;47.356;19.448;2023-05-07T16:49:01;21.62;56.02
68274;SHT30;55104;47.356;19.448;2023-05-07T16:52:04;21.55;56.61
68274;SHT30;55104;47.356;19.448;2023-05-07T16:55:06;21.50;57.55
68274;SHT30;55104;47.356;19.448;2023-05-07T16:58:10;21.30;57.76
68274;SHT30;55104;47.356;19.448;2023-05-07T17:01:12;21.14;58.25
68274;SHT30;55104;47.356;19.448;2023-05-07T17:04:16;21.13;58.12
68274;SHT30;55104;47.356;19.448;2023-05-07T17:07:18;21.09;59.08
68274;SHT30;55104;47.356;19.448;2023-05-07T17:10:20;20.99;58.26
68274;SHT30;55104;47.356;19.448;2023-05-07T17:13:22;20.85;59.37
68274;SHT30;55104;47.356;19.448;2023-05-07T17:16:25;20.76;59.74
68274;SHT30;55104;47.356;19.448;2023-05-07T17:19:27;20.67;59.92
68274;SHT30;55104;47.356;19.448;2023-05-07T17:22:29;20.52;60.36
68274;SHT30;55104;47.356;19.448;2023-05-07T17:25:32;20.44;60.20
68274;SHT30;55104;47.356;19.448;2023-05-07T17:28:35;20.40;59.97
68274;SHT30;55104;47.356;19.448;2023-05-07T17:31:37;20.19;61.16
68274;SHT30;55104;47.356;19.448;2023-05-07T17:34:39;20.10;61.11
68274;SHT30;55104;47.356;19.448;2023-05-07T17:37:41;19.90;62.25
68274;SHT30;55104;47.356;19.448;2023-05-07T17:40:48;19.78;62.35
68274;SHT30;55104;47.356;19.448;2023-05-07T17:43:50;19.58;63.35
68274;SHT30;55104;47.356;19.448;2023-05-07T17:46:52;19.48;63.43
68274;SHT30;55104;47.356;19.448;2023-05-07T17:49:54;19.17;64.28
68274;SHT30;55104;47.356;19.448;2023-05-07T17:52:56;19.11;64.43
68274;SHT30;55104;47.356;19.448;2023-05-07T17:55:58;18.96;65.29
68274;SHT30;55104;47.356;19.448;2023-05-07T17:59:00;18.79;65.82
68274;SHT30;55104;47.356;19.448;2023-05-07T18:02:02;18.38;69.14
68274;SHT30;55104;47.356;19.448;2023-05-07T18:05:06;17.27;77.53
68274;SHT30;55104;47.356;19.448;2023-05-07T18:08:08;16.62;80.31
68274;SHT30;55104;47.356;19.448;2023-05-07T18:11:10;15.99;81.17
68274;SHT30;55104;47.356;19.448;2023-05-07T18:14:12;15.79;82.38
68274;SHT30;55104;47.356;19.448;2023-05-07T18:17:15;15.49;83.05
68274;SHT30;55104;47.356;19.448;2023-05-07T18:20:17;15.31;84.13
68274;SHT30;55104;47.356;19.448;2023-05-07T18:23:20;15.11;84.37
68274;SHT30;55104;47.356;19.448;2023-05-07T18:26:22;15.03;84.13
68274;SHT30;55104;47.356;19.448;2023-05-07T18:29:24;14.91;84.09
68274;SHT30;55104;47.356;19.448;2023-05-07T18:32:26;14.81;83.50
68274;SHT30;55104;47.356;19.448;2023-05-07T18:35:30;14.66;82.74
68274;SHT30;55104;47.356;19.448;2023-05-07T18:38:32;14.53;83.56
68274;SHT30;55104;47.356;19.448;2023-05-07T18:41:35;14.36;84.28
68274;SHT30;55104;47.356;19.448;2023-05-07T18:44:37;14.28;84.58
68274;SHT30;55104;47.356;19.448;2023-05-07T18:47:39;14.20;84.03
68274;SHT30;55104;47.356;19.448;2023-05-07T18:50:42;14.08;84.20
68274;SHT30;55104;47.356;19.448;2023-05-07T18:53:45;14.10;84.53
68274;SHT30;55104;47.356;19.448;2023-05-07T18:56:47;14.01;83.93
68274;SHT30;55104;47.356;19.448;2023-05-07T18:59:53;13.96;84.41
68274;SHT30;55104;47.356;19.448;2023-05-07T19:02:55;13.89;84.53
68274;SHT30;55104;47.356;19.448;2023-05-07T19:05:58;13.80;84.99
68274;SHT30;55104;47.356;19.448;2023-05-07T19:09:00;13.77;85.35
68274;SHT30;55104;47.356;19.448;2023-05-07T19:12:04;13.74;85.58
68274;SHT30;55104;47.356;19.448;2023-05-07T19:15:09;13.52;85.76